TimeEST,TemperatureF,Dew PointF,Humidity,Sea Level PressureIn,VisibilityMPH,Wind Direction,Wind SpeedMPH,Gust SpeedMPH,PrecipitationIn,Events,Conditions,WindDirDegrees,DateUTC
12:15 AM,41.7,38.7,89,29.87,10.0,South,8.1,-,N/A,,Overcast,170,2013-01-14 05:15:00
12:35 AM,42.8,39.7,89,29.85,10.0,South,5.8,-,N/A,,Overcast,190,2013-01-14 05:35:00
12:55 AM,42.8,39.6,88,29.86,10.0,South,5.8,-,N/A,,Overcast,180,2013-01-14 05:55:00
1:15 AM,43.0,39.9,89,29.86,10.0,South,8.1,-,N/A,,Overcast,170,2013-01-14 06:15:00
1:35 AM,42.4,39.4,89,29.85,10.0,South,5.8,-,N/A,,Overcast,170,2013-01-14 06:35:00
1:55 AM,42.3,39.2,89,29.84,10.0,South,8.1,-,N/A,,Overcast,180,2013-01-14 06:55:00
2:15 AM,42.1,39.0,89,29.84,10.0,South,5.8,-,N/A,,Overcast,180,2013-01-14 07:15:00
2:35 AM,42.6,39.4,88,29.83,10.0,South,5.8,-,N/A,,Overcast,180,2013-01-14 07:35:00
2:55 AM,42.8,39.7,89,29.82,10.0,South,8.1,-,N/A,,Mostly Cloudy,170,2013-01-14 07:55:00
3:15 AM,42.4,39.2,88,29.79,10.0,SSE,8.1,-,N/A,,Scattered Clouds,160,2013-01-14 08:15:00
3:55 AM,42.3,38.8,88,29.76,10.0,SSE,13.8,17.3,N/A,,Scattered Clouds,160,2013-01-14 08:55:00
4:15 AM,43.2,40.1,89,29.77,10.0,South,10.4,-,N/A,,Scattered Clouds,170,2013-01-14 09:15:00
4:35 AM,43.7,39.9,87,29.75,10.0,SSE,16.1,-,N/A,,Mostly Cloudy,160,2013-01-14 09:35:00
4:55 AM,43.9,40.3,87,29.76,10.0,South,8.1,16.1,N/A,,Mostly Cloudy,170,2013-01-14 09:55:00
5:15 AM,44.1,40.5,87,29.76,10.0,South,10.4,-,N/A,,Scattered Clouds,170,2013-01-14 10:15:00
5:35 AM,44.6,40.5,85,29.76,10.0,South,11.5,18.4,N/A,,Mostly Cloudy,180,2013-01-14 10:35:00
5:55 AM,44.4,40.3,85,29.76,10.0,South,8.1,-,N/A,,Overcast,180,2013-01-14 10:55:00
6:15 AM,43.9,40.5,88,29.77,10.0,South,8.1,-,N/A,,Overcast,180,2013-01-14 11:15:00
6:35 AM,44.6,41.0,87,29.80,10.0,South,8.1,-,N/A,,Overcast,190,2013-01-14 11:35:00
7:15 AM,44.1,40.8,88,29.83,7.0,South,4.6,-,N/A,,Drizzle,190,2013-01-14 12:15:00
7:35 AM,43.3,40.3,89,29.86,5.0,South,4.6,-,N/A,,Drizzle,170,2013-01-14 12:35:00
7:55 AM,41.5,38.8,90,29.87,3.0,Calm,Calm,-,N/A,,Overcast,0,2013-01-14 12:55:00
8:15 AM,40.8,38.5,91,29.89,2.0,Calm,Calm,-,N/A,,Overcast,0,2013-01-14 13:15:00
8:35 AM,43.9,41.7,92,29.90,2.5,Calm,Calm,-,N/A,,Overcast,0,2013-01-14 13:35:00
8:55 AM,44.1,41.9,92,29.91,10.0,WNW,3.5,-,N/A,,Overcast,290,2013-01-14 13:55:00
9:15 AM,46.8,41.9,83,29.93,10.0,West,10.4,20.7,N/A,,Overcast,260,2013-01-14 14:15:00
9:35 AM,43.3,39.4,86,29.95,10.0,WNW,12.7,-,N/A,,Overcast,300,2013-01-14 14:35:00
9:55 AM,41.5,37.4,85,29.98,10.0,WNW,16.1,19.6,N/A,,Overcast,300,2013-01-14 14:55:00
10:15 AM,39.7,35.4,85,29.99,10.0,WNW,16.1,24.2,N/A,,Overcast,290,2013-01-14 15:15:00
10:35 AM,39.4,34.7,83,30.01,10.0,West,10.4,16.1,N/A,,Overcast,280,2013-01-14 15:35:00
10:55 AM,38.7,33.3,81,30.02,10.0,Calm,Calm,-,N/A,,Overcast,0,2013-01-14 15:55:00
11:15 AM,37.6,32.0,80,30.03,10.0,West,8.1,-,N/A,,Overcast,280,2013-01-14 16:15:00
11:35 AM,37.0,31.8,81,30.04,10.0,NW,11.5,18.4,N/A,,Overcast,310,2013-01-14 16:35:00
11:55 AM,36.9,31.1,80,30.05,10.0,NW,11.5,18.4,N/A,,Overcast,310,2013-01-14 16:55:00
12:15 PM,37.0,30.9,79,30.05,10.0,Calm,Calm,-,N/A,,Overcast,0,2013-01-14 17:15:00
12:35 PM,37.8,30.7,76,30.06,10.0,ENE,4.6,-,N/A,,Overcast,60,2013-01-14 17:35:00
12:55 PM,37.8,30.4,75,30.07,10.0,Calm,Calm,-,N/A,,Overcast,0,2013-01-14 17:55:00
1:15 PM,37.2,28.4,70,30.09,10.0,North,6.9,-,N/A,,Overcast,350,2013-01-14 18:15:00
1:35 PM,38.3,25.5,60,30.09,10.0,WNW,6.9,-,N/A,,Overcast,290,2013-01-14 18:35:00
1:55 PM,37.0,25.5,63,30.10,10.0,NNW,11.5,24.2,N/A,,Overcast,330,2013-01-14 18:55:00
2:15 PM,36.7,23.7,59,30.12,10.0,NNW,10.4,16.1,N/A,,Overcast,330,2013-01-14 19:15:00
2:35 PM,36.7,23.7,59,30.13,10.0,NW,12.7,16.1,N/A,,Overcast,320,2013-01-14 19:35:00
3:15 PM,36.0,23.2,60,30.15,10.0,NW,13.8,19.6,N/A,,Overcast,310,2013-01-14 20:15:00
3:55 PM,36.0,23.0,59,30.16,10.0,WNW,11.5,16.1,N/A,,Overcast,290,2013-01-14 20:55:00
4:15 PM,35.6,23.7,62,30.16,10.0,WNW,9.2,-,N/A,,Overcast,290,2013-01-14 21:15:00
4:35 PM,35.6,24.6,64,30.16,10.0,West,10.4,18.4,N/A,,Overcast,280,2013-01-14 21:35:00
4:55 PM,35.2,24.8,66,30.17,10.0,WNW,8.1,18.4,N/A,,Mostly Cloudy,290,2013-01-14 21:55:00
5:35 PM,34.2,24.8,69,30.17,10.0,NW,8.1,18.4,N/A,,Mostly Cloudy,320,2013-01-14 22:35:00
5:55 PM,34.0,24.6,69,30.16,10.0,WNW,3.5,-,N/A,,Overcast,300,2013-01-14 22:55:00
6:15 PM,33.1,24.8,72,30.17,10.0,NW,6.9,-,N/A,,Overcast,310,2013-01-14 23:15:00
6:35 PM,32.7,24.6,72,30.18,10.0,NW,3.5,-,N/A,,Overcast,310,2013-01-14 23:35:00
6:55 PM,32.2,24.1,72,30.19,10.0,WNW,5.8,-,N/A,,Overcast,300,2013-01-14 23:55:00
7:15 PM,32.4,23.0,68,30.21,10.0,WNW,4.6,-,N/A,,Overcast,300,2013-01-15 00:15:00
7:35 PM,32.5,21.7,64,30.21,10.0,West,4.6,-,N/A,,Overcast,280,2013-01-15 00:35:00
7:55 PM,32.4,20.1,61,30.20,10.0,West,4.6,-,N/A,,Overcast,260,2013-01-15 00:55:00
8:15 PM,32.5,19.0,58,30.23,10.0,WNW,12.7,18.4,N/A,,Overcast,290,2013-01-15 01:15:00
8:35 PM,32.0,19.2,59,30.23,10.0,West,9.2,18.4,N/A,,Overcast,280,2013-01-15 01:35:00
8:55 PM,32.0,19.4,60,30.24,10.0,West,6.9,-,N/A,,Overcast,280,2013-01-15 01:55:00
9:15 PM,32.0,18.5,58,30.23,10.0,West,10.4,-,N/A,,Overcast,280,2013-01-15 02:15:00
9:35 PM,32.0,18.1,57,30.21,10.0,West,5.8,-,N/A,,Overcast,280,2013-01-15 02:35:00
9:55 PM,32.0,18.1,57,30.22,10.0,West,8.1,-,N/A,,Overcast,270,2013-01-15 02:55:00
10:15 PM,32.0,17.4,55,30.22,10.0,West,5.8,-,N/A,,Overcast,280,2013-01-15 03:15:00
10:35 PM,32.0,17.2,55,30.23,10.0,Calm,Calm,-,N/A,,Overcast,0,2013-01-15 03:35:00
10:55 PM,31.8,16.7,54,30.21,10.0,NW,4.6,-,N/A,,Overcast,310,2013-01-15 03:55:00
11:15 PM,31.6,17.6,56,30.22,10.0,NW,3.5,-,N/A,,Overcast,310,2013-01-15 04:15:00
11:35 PM,31.5,17.6,57,30.24,10.0,West,4.6,-,N/A,,Overcast,260,2013-01-15 04:35:00
11:55 PM,31.5,17.4,56,30.25,10.0,West,6.9,-,N/A,,Overcast,280,2013-01-15 04:55:00